createdAt,value
2017-11-15T00:00:55.679Z,9.30
2017-11-15T00:01:57.099Z,9.24
2017-11-15T00:02:58.511Z,9.39
2017-11-15T00:03:59.922Z,9.38
2017-11-15T00:05:01.406Z,9.30
2017-11-15T00:06:02.825Z,9.23
2017-11-15T00:07:04.244Z,9.13
2017-11-15T00:08:05.656Z,9.30
2017-11-15T00:09:07.075Z,9.24
2017-11-15T00:10:08.479Z,9.18
2017-11-15T00:11:09.887Z,9.20
2017-11-15T00:12:11.377Z,9.21
2017-11-15T00:13:12.793Z,9.15
2017-11-15T00:14:14.206Z,9.24
2017-11-15T00:15:15.614Z,9.23
2017-11-15T00:16:17.029Z,9.32
2017-11-15T00:17:18.440Z,9.10
2017-11-15T00:18:19.852Z,9.15
2017-11-15T00:19:23.819Z,9.43
2017-11-15T00:20:25.041Z,9.39
2017-11-15T00:21:26.519Z,9.35
2017-11-15T00:22:27.944Z,9.24
2017-11-15T00:23:29.868Z,9.21
2017-11-15T00:24:31.892Z,9.21
2017-11-15T00:25:33.296Z,9.38
2017-11-15T00:26:34.709Z,9.31
2017-11-15T00:27:36.117Z,9.43
2017-11-15T00:28:37.528Z,9.39
2017-11-15T00:29:38.946Z,9.34
2017-11-15T00:30:40.352Z,9.35
2017-11-15T00:31:41.756Z,9.35
2017-11-15T00:32:43.169Z,9.24
2017-11-15T00:33:44.580Z,9.31
2017-11-15T00:34:45.997Z,9.21
2017-11-15T00:35:47.410Z,9.20
2017-11-15T00:36:48.823Z,9.23
2017-11-15T00:37:51.210Z,9.30
2017-11-15T00:38:52.618Z,9.32
2017-11-15T00:39:54.035Z,9.23
2017-11-15T00:40:55.444Z,9.28
2017-11-15T00:41:56.858Z,9.24
2017-11-15T00:42:58.275Z,9.31
2017-11-15T00:43:59.681Z,9.21
2017-11-15T00:45:01.666Z,9.16
2017-11-15T00:46:03.066Z,9.13
2017-11-15T00:47:04.485Z,9.21
2017-11-15T00:48:05.893Z,9.25
2017-11-15T00:49:07.304Z,9.28
2017-11-15T00:50:08.714Z,9.31
2017-11-15T00:51:10.136Z,9.25
2017-11-15T00:52:11.543Z,9.23
2017-11-15T00:53:12.956Z,9.18
2017-11-15T00:54:14.390Z,9.16
2017-11-15T00:55:15.809Z,9.28
2017-11-15T00:56:17.222Z,9.32
2017-11-15T00:57:18.633Z,9.40
2017-11-15T00:58:20.043Z,9.40
2017-11-15T00:59:21.461Z,9.40
2017-11-15T01:00:22.875Z,9.45
2017-11-15T01:01:24.290Z,9.39
2017-11-15T01:02:25.700Z,9.31
2017-11-15T01:03:27.102Z,9.43
2017-11-15T01:04:28.511Z,9.42
2017-11-15T01:05:29.925Z,9.38
2017-11-15T01:06:31.343Z,9.43
2017-11-15T01:07:32.811Z,9.45
2017-11-15T01:08:34.226Z,9.48
2017-11-15T01:09:35.633Z,9.50
2017-11-15T01:10:37.040Z,9.53
2017-11-15T01:11:41.829Z,9.60
2017-11-15T01:12:43.239Z,9.45
2017-11-15T01:13:44.645Z,9.53
2017-11-15T01:14:46.063Z,9.71
2017-11-15T01:15:47.474Z,9.43
2017-11-15T01:16:48.902Z,9.52
2017-11-15T01:17:50.405Z,9.49
2017-11-15T01:18:51.818Z,9.40
2017-11-15T01:19:53.227Z,9.46
2017-11-15T01:20:54.645Z,9.53
2017-11-15T01:21:56.061Z,9.56
2017-11-15T01:22:57.477Z,9.40
2017-11-15T01:23:58.888Z,9.35
2017-11-15T01:25:00.440Z,9.40
2017-11-15T01:26:01.845Z,9.39
2017-11-15T01:27:03.258Z,9.48
2017-11-15T01:28:04.668Z,9.43
2017-11-15T01:29:06.081Z,9.50
2017-11-15T01:30:07.497Z,9.49
2017-11-15T01:31:08.908Z,9.60
2017-11-15T01:32:10.311Z,9.56
2017-11-15T01:33:11.714Z,9.58
2017-11-15T01:34:13.130Z,9.83
2017-11-15T01:35:14.547Z,9.85
2017-11-15T01:36:15.966Z,9.86
2017-11-15T01:37:17.366Z,9.46
2017-11-15T01:38:18.914Z,9.40
2017-11-15T01:39:20.315Z,9.46
2017-11-15T01:40:21.728Z,9.40
2017-11-15T01:41:23.138Z,9.42
2017-11-15T01:42:24.546Z,9.57
2017-11-15T01:43:25.954Z,9.46
2017-11-15T01:44:27.370Z,9.45
2017-11-15T01:45:28.778Z,9.64
2017-11-15T01:46:30.189Z,9.49
2017-11-15T01:47:31.597Z,9.46
2017-11-15T01:48:33.001Z,9.45
2017-11-15T01:49:34.408Z,9.35
2017-11-15T01:50:35.811Z,9.40
2017-11-15T01:51:37.221Z,9.35
2017-11-15T01:52:38.632Z,9.40
2017-11-15T01:53:40.032Z,9.25
2017-11-15T01:54:41.448Z,9.40
2017-11-15T01:55:42.850Z,9.45
2017-11-15T01:56:44.266Z,9.53
2017-11-15T01:57:45.763Z,9.53
2017-11-15T01:58:47.175Z,9.53
2017-11-15T01:59:48.578Z,9.60
2017-11-15T02:00:49.995Z,9.50
2017-11-15T02:01:51.395Z,9.66
2017-11-15T02:02:52.818Z,9.75
2017-11-15T02:03:54.225Z,9.63
2017-11-15T02:04:55.638Z,9.42
2017-11-15T02:05:57.054Z,9.39
2017-11-15T02:06:58.469Z,9.38
2017-11-15T02:07:59.881Z,9.40
2017-11-15T02:09:01.295Z,9.53
2017-11-15T02:10:02.706Z,9.58
2017-11-15T02:11:04.119Z,9.60
2017-11-15T02:12:05.528Z,9.50
2017-11-15T02:13:06.937Z,9.43
2017-11-15T02:14:08.353Z,9.49
2017-11-15T02:15:09.772Z,9.56
2017-11-15T02:16:11.171Z,9.57
2017-11-15T02:17:12.584Z,9.61
2017-11-15T02:18:13.988Z,9.56
2017-11-15T02:19:15.422Z,9.67
2017-11-15T02:20:16.840Z,9.52
2017-11-15T02:21:18.251Z,9.57
2017-11-15T02:22:19.666Z,9.79
2017-11-15T02:23:21.082Z,9.73
2017-11-15T02:24:22.491Z,9.57
2017-11-15T02:25:23.914Z,9.49
2017-11-15T02:26:25.325Z,9.76
2017-11-15T02:27:26.734Z,9.78
2017-11-15T02:28:28.938Z,9.81
2017-11-15T02:29:30.345Z,10.03
2017-11-15T02:30:31.751Z,9.97
2017-11-15T02:31:33.159Z,9.76
2017-11-15T02:32:34.577Z,9.76
2017-11-15T02:33:35.985Z,9.85
2017-11-15T02:34:37.391Z,9.81
2017-11-15T02:35:40.739Z,9.81
2017-11-15T02:36:42.146Z,9.78
2017-11-15T02:37:43.554Z,9.73
2017-11-15T02:38:44.964Z,9.66
2017-11-15T02:39:47.012Z,9.67
2017-11-15T02:40:48.441Z,9.79
2017-11-15T02:41:49.855Z,9.76
2017-11-15T02:42:51.271Z,9.97
2017-11-15T02:43:52.678Z,9.94
2017-11-15T02:44:54.098Z,9.68
2017-11-15T02:45:55.507Z,9.73
2017-11-15T02:46:56.915Z,9.82
2017-11-15T02:47:59.236Z,9.67
2017-11-15T02:49:00.636Z,9.73
2017-11-15T02:50:02.053Z,9.56
2017-11-15T02:51:03.462Z,9.53
2017-11-15T02:52:04.871Z,9.75
2017-11-15T02:53:06.279Z,9.88
2017-11-15T02:54:07.706Z,9.79
2017-11-15T02:55:09.106Z,9.86
2017-11-15T02:56:10.526Z,9.78
2017-11-15T02:57:11.935Z,9.97
2017-11-15T02:58:13.353Z,9.85
2017-11-15T02:59:14.844Z,9.99
2017-11-15T03:00:16.257Z,9.99
2017-11-15T03:01:17.674Z,10.09
2017-11-15T03:02:19.087Z,9.96
2017-11-15T03:03:20.499Z,9.67
2017-11-15T03:04:21.918Z,9.63
2017-11-15T03:05:23.331Z,9.67
2017-11-15T03:06:24.752Z,9.66
2017-11-15T03:07:26.160Z,9.66
2017-11-15T03:08:27.560Z,9.56
2017-11-15T03:09:28.977Z,9.53
2017-11-15T03:10:30.392Z,9.60
2017-11-15T03:11:31.797Z,9.78
2017-11-15T03:12:33.212Z,9.61
2017-11-15T03:13:34.624Z,9.40
2017-11-15T03:14:36.037Z,9.58
2017-11-15T03:15:37.441Z,9.60
2017-11-15T03:16:38.857Z,9.43
2017-11-15T03:17:40.274Z,9.52
2017-11-15T03:18:41.672Z,9.40
2017-11-15T03:19:43.082Z,9.35
2017-11-15T03:20:44.513Z,9.43
2017-11-15T03:21:45.917Z,9.50
2017-11-15T03:22:47.333Z,9.43
2017-11-15T03:23:48.747Z,9.43
2017-11-15T03:24:50.251Z,9.45
2017-11-15T03:25:51.675Z,9.52
2017-11-15T03:26:53.082Z,9.38
2017-11-15T03:27:54.490Z,9.39
2017-11-15T03:28:55.912Z,9.31
2017-11-15T03:29:57.325Z,9.40
2017-11-15T03:30:58.732Z,9.52
2017-11-15T03:32:00.144Z,9.50
2017-11-15T03:33:01.556Z,9.57
2017-11-15T03:34:02.975Z,9.53
2017-11-15T03:35:04.342Z,9.56
2017-11-15T03:36:05.754Z,9.42
2017-11-15T03:37:07.168Z,9.40
2017-11-15T03:38:08.577Z,9.50
2017-11-15T03:39:09.991Z,9.63
2017-11-15T03:40:11.404Z,9.53
2017-11-15T03:41:12.808Z,9.45
2017-11-15T03:42:14.223Z,9.35
2017-11-15T03:43:15.629Z,9.43
2017-11-15T03:44:17.176Z,9.43
2017-11-15T03:45:18.582Z,9.40
2017-11-15T03:46:19.999Z,9.45
2017-11-15T03:47:21.415Z,9.34
2017-11-15T03:48:22.830Z,9.46
2017-11-15T03:49:24.240Z,9.49
2017-11-15T03:50:25.652Z,9.45
2017-11-15T03:51:27.065Z,9.48
2017-11-15T03:52:28.475Z,9.56
2017-11-15T03:53:29.889Z,9.61
2017-11-15T03:54:31.300Z,9.43
2017-11-15T03:55:32.721Z,9.43
2017-11-15T03:56:34.112Z,9.50
2017-11-15T03:57:35.524Z,9.67
2017-11-15T03:58:36.933Z,9.42
2017-11-15T03:59:38.494Z,9.67
2017-11-15T04:00:39.907Z,9.58
2017-11-15T04:01:41.325Z,9.71
2017-11-15T04:02:42.731Z,9.76
2017-11-15T04:03:44.148Z,9.70
2017-11-15T04:04:45.562Z,9.70
2017-11-15T04:05:46.967Z,9.39
2017-11-15T04:06:48.384Z,9.49
2017-11-15T04:07:49.796Z,9.45
2017-11-15T04:08:51.208Z,9.56
2017-11-15T04:09:52.612Z,9.42
2017-11-15T04:10:54.034Z,9.50
2017-11-15T04:11:55.438Z,9.66
2017-11-15T04:12:56.846Z,9.75
2017-11-15T04:13:58.261Z,9.79
2017-11-15T04:14:59.680Z,9.73
2017-11-15T04:16:01.109Z,9.81
2017-11-15T04:17:02.521Z,9.91
2017-11-15T04:18:03.938Z,9.85
2017-11-15T04:19:05.351Z,9.91
2017-11-15T04:20:06.755Z,9.79
2017-11-15T04:21:08.165Z,9.86
2017-11-15T04:22:09.576Z,9.81
2017-11-15T04:23:11.013Z,9.85
2017-11-15T04:24:12.420Z,9.94
2017-11-15T04:25:13.842Z,9.78
2017-11-15T04:26:15.248Z,9.70
2017-11-15T04:27:16.669Z,9.88
2017-11-15T04:28:18.084Z,10.14
2017-11-15T04:29:19.503Z,10.36
2017-11-15T04:30:20.923Z,9.99
2017-11-15T04:31:22.334Z,10.17
2017-11-15T04:32:23.747Z,10.15
2017-11-15T04:33:25.158Z,9.96
2017-11-15T04:34:26.568Z,9.89
2017-11-15T04:35:27.980Z,9.97
2017-11-15T04:36:29.390Z,9.97
2017-11-15T04:37:30.879Z,9.76
2017-11-15T04:38:32.285Z,9.85
2017-11-15T04:39:33.708Z,9.78
2017-11-15T04:40:35.117Z,9.78
2017-11-15T04:41:36.523Z,9.88
2017-11-15T04:42:38.849Z,9.94
2017-11-15T04:43:40.258Z,10.33
2017-11-15T04:44:41.661Z,10.32
2017-11-15T04:45:43.076Z,10.36
2017-11-15T04:46:44.489Z,10.37
2017-11-15T04:47:45.899Z,10.44
2017-11-15T04:48:47.313Z,10.39
2017-11-15T04:49:48.729Z,10.34
2017-11-15T04:50:50.139Z,10.56
2017-11-15T04:51:51.553Z,10.60
2017-11-15T04:52:52.971Z,10.56
2017-11-15T04:53:54.386Z,10.43
2017-11-15T04:54:55.798Z,10.09
2017-11-15T04:55:57.217Z,10.04
2017-11-15T04:56:58.627Z,10.42
2017-11-15T04:58:00.034Z,10.55
2017-11-15T04:59:01.453Z,10.30
2017-11-15T05:00:02.862Z,10.09
2017-11-15T05:01:04.276Z,10.01
2017-11-15T05:02:05.682Z,10.00
2017-11-15T05:03:07.089Z,10.01
2017-11-15T05:04:08.499Z,10.12
2017-11-15T05:05:09.908Z,9.94
2017-11-15T05:06:11.319Z,9.99
2017-11-15T05:07:12.728Z,10.01
2017-11-15T05:08:14.140Z,10.04
2017-11-15T05:09:15.606Z,10.03
2017-11-15T05:10:17.026Z,9.93
2017-11-15T05:11:18.438Z,9.99
2017-11-15T05:12:19.845Z,9.82
2017-11-15T05:13:21.816Z,9.93
2017-11-15T05:14:23.229Z,10.00
2017-11-15T05:15:24.638Z,9.89
2017-11-15T05:16:26.047Z,9.94
2017-11-15T05:17:27.452Z,9.93
2017-11-15T05:18:28.861Z,9.97
2017-11-15T05:19:30.373Z,10.03
2017-11-15T05:20:31.781Z,9.91
2017-11-15T05:21:33.194Z,9.83
2017-11-15T05:22:34.612Z,10.00
2017-11-15T05:23:36.010Z,9.91
2017-11-15T05:24:37.427Z,10.01
2017-11-15T05:25:38.845Z,9.83
2017-11-15T05:26:40.362Z,9.97
2017-11-15T05:27:41.781Z,10.01
2017-11-15T05:28:43.186Z,9.97
2017-11-15T05:29:44.599Z,10.04
2017-11-15T05:30:46.007Z,9.81
2017-11-15T05:31:47.407Z,9.83
2017-11-15T05:32:48.830Z,9.82
2017-11-15T05:33:50.294Z,9.89
2017-11-15T05:34:51.700Z,9.85
2017-11-15T05:35:53.116Z,9.73
2017-11-15T05:36:54.518Z,9.67
2017-11-15T05:37:55.928Z,9.79
2017-11-15T05:38:57.334Z,9.71
2017-11-15T05:39:58.755Z,9.91
2017-11-15T05:41:00.159Z,9.79
2017-11-15T05:42:01.571Z,9.88
2017-11-15T05:43:02.978Z,9.75
2017-11-15T05:44:04.386Z,9.78
2017-11-15T05:45:05.790Z,9.68
2017-11-15T05:46:07.202Z,9.79
2017-11-15T05:47:08.659Z,9.75
2017-11-15T05:48:10.062Z,9.81
2017-11-15T05:49:11.467Z,9.76
2017-11-15T05:50:12.903Z,9.68
2017-11-15T05:51:14.295Z,9.75
2017-11-15T05:52:15.696Z,9.78
2017-11-15T05:53:17.122Z,9.76
2017-11-15T05:54:18.521Z,9.94
2017-11-15T05:55:19.940Z,9.88
2017-11-15T05:56:21.357Z,9.79
2017-11-15T05:57:22.762Z,9.89
2017-11-15T05:58:24.178Z,9.85
2017-11-15T05:59:25.597Z,9.94
2017-11-15T06:00:27.003Z,9.99
2017-11-15T06:01:28.406Z,9.83
2017-11-15T06:02:29.821Z,9.83
2017-11-15T06:03:31.227Z,9.78
2017-11-15T06:04:32.636Z,9.85
2017-11-15T06:05:34.046Z,9.75
2017-11-15T06:06:35.526Z,9.71
2017-11-15T06:07:36.937Z,9.83
2017-11-15T06:08:38.349Z,9.68
2017-11-15T06:09:39.860Z,9.64
2017-11-15T06:10:41.279Z,9.53
2017-11-15T06:11:42.632Z,9.66
2017-11-15T06:12:44.012Z,9.49
2017-11-15T06:13:45.488Z,9.42
2017-11-15T06:14:46.823Z,9.49
2017-11-15T06:15:48.222Z,9.73
2017-11-15T06:16:49.675Z,9.68
2017-11-15T06:17:51.021Z,9.75
2017-11-15T06:18:52.508Z,9.73
2017-11-15T06:19:54.074Z,9.78
2017-11-15T06:20:55.455Z,9.64
2017-11-15T06:21:56.791Z,9.49
2017-11-15T06:22:58.241Z,9.52
2017-11-15T06:23:59.603Z,9.64
2017-11-15T06:25:01.027Z,9.73
2017-11-15T06:26:02.413Z,9.81
2017-11-15T06:27:03.862Z,9.99
2017-11-15T06:28:05.180Z,9.99
2017-11-15T06:29:06.578Z,9.82
2017-11-15T06:30:07.991Z,9.89
2017-11-15T06:31:09.462Z,9.78
2017-11-15T06:32:10.857Z,9.79
2017-11-15T06:33:12.293Z,9.83
2017-11-15T06:34:13.628Z,9.76
2017-11-15T06:35:15.107Z,9.71
2017-11-15T06:36:16.552Z,9.78
2017-11-15T06:37:17.784Z,9.70
2017-11-15T06:38:19.201Z,9.61
2017-11-15T06:39:20.614Z,9.68
2017-11-15T06:40:22.033Z,9.66
2017-11-15T06:41:23.440Z,9.70
2017-11-15T06:42:24.846Z,9.68
2017-11-15T06:43:26.249Z,9.81
2017-11-15T06:44:27.654Z,9.85
2017-11-15T06:45:29.065Z,9.76
2017-11-15T06:46:30.470Z,9.82
2017-11-15T06:47:31.889Z,9.93
2017-11-15T06:48:33.287Z,9.96
2017-11-15T06:49:34.702Z,9.91
2017-11-15T06:50:36.111Z,9.82
2017-11-15T06:51:37.518Z,9.81
2017-11-15T06:52:38.925Z,9.78
2017-11-15T06:53:40.328Z,9.78
2017-11-15T06:54:41.740Z,9.86
2017-11-15T06:55:43.153Z,9.79
2017-11-15T06:56:44.568Z,9.88
2017-11-15T06:57:46.074Z,9.88
2017-11-15T06:58:47.491Z,9.76
2017-11-15T06:59:48.902Z,9.76
2017-11-15T07:00:50.312Z,9.78
2017-11-15T07:01:51.722Z,9.89
2017-11-15T07:02:53.133Z,9.85
2017-11-15T07:03:54.562Z,9.94
2017-11-15T07:04:55.955Z,9.99
2017-11-15T07:05:57.373Z,10.00
2017-11-15T07:06:58.781Z,10.00
2017-11-15T07:08:00.193Z,9.85
2017-11-15T07:09:01.609Z,9.96
2017-11-15T07:10:03.024Z,9.85
2017-11-15T07:11:04.540Z,9.89
2017-11-15T07:12:05.959Z,9.83
2017-11-15T07:13:07.374Z,9.63
2017-11-15T07:14:08.789Z,9.73
2017-11-15T07:15:10.202Z,9.70
2017-11-15T07:16:11.606Z,9.68
2017-11-15T07:17:13.017Z,9.82
2017-11-15T07:18:14.428Z,9.81
2017-11-15T07:19:15.842Z,9.89
2017-11-15T07:20:17.267Z,9.86
2017-11-15T07:21:18.672Z,9.79
2017-11-15T07:22:20.097Z,9.85
2017-11-15T07:23:21.500Z,9.76
2017-11-15T07:24:22.914Z,9.89
2017-11-15T07:25:24.471Z,9.86
2017-11-15T07:26:25.880Z,10.01
2017-11-15T07:27:27.330Z,9.94
2017-11-15T07:28:28.752Z,10.00
2017-11-15T07:29:30.159Z,9.93
2017-11-15T07:30:31.572Z,9.85
2017-11-15T07:31:32.988Z,9.93
2017-11-15T07:32:34.556Z,9.79
2017-11-15T07:33:35.968Z,9.85
2017-11-15T07:34:37.371Z,9.83
2017-11-15T07:35:38.780Z,9.96
2017-11-15T07:36:40.196Z,9.85
2017-11-15T07:37:41.603Z,9.99
2017-11-15T07:38:43.007Z,10.00
2017-11-15T07:39:46.446Z,9.99
2017-11-15T07:40:47.159Z,9.85
2017-11-15T07:41:48.571Z,9.91
2017-11-15T07:42:49.984Z,9.85
2017-11-15T07:43:51.391Z,9.96
2017-11-15T07:44:52.800Z,9.97
2017-11-15T07:45:54.212Z,9.99
2017-11-15T07:46:55.641Z,9.94
2017-11-15T07:47:57.639Z,10.03
2017-11-15T07:48:59.058Z,9.96
2017-11-15T07:50:00.465Z,10.06
2017-11-15T07:51:01.878Z,9.94
2017-11-15T07:52:03.287Z,9.96
2017-11-15T07:53:04.740Z,10.10
2017-11-15T07:54:06.140Z,10.00
2017-11-15T07:55:07.555Z,10.14
2017-11-15T07:56:08.978Z,10.01
2017-11-15T07:57:10.406Z,9.96
2017-11-15T07:58:11.821Z,10.04
2017-11-15T07:59:13.248Z,10.10
2017-11-15T08:00:15.172Z,10.15
2017-11-15T08:01:16.577Z,10.21
2017-11-15T08:02:18.014Z,10.24
2017-11-15T08:03:19.436Z,10.12
2017-11-15T08:04:20.841Z,10.09
2017-11-15T08:05:22.253Z,10.17
2017-11-15T08:06:23.677Z,10.18
2017-11-15T08:07:25.091Z,9.99
2017-11-15T08:08:26.566Z,9.97
2017-11-15T08:09:27.984Z,9.96
2017-11-15T08:10:29.393Z,9.93
2017-11-15T08:11:30.808Z,10.14
2017-11-15T08:12:32.219Z,10.07
2017-11-15T08:13:33.641Z,10.06
2017-11-15T08:14:35.071Z,10.21
2017-11-15T08:15:36.471Z,10.07
2017-11-15T08:16:37.884Z,10.14
2017-11-15T08:17:39.324Z,10.14
2017-11-15T08:18:40.721Z,10.22
2017-11-15T08:19:42.141Z,10.14
2017-11-15T08:20:43.553Z,10.12
2017-11-15T08:21:44.970Z,10.18
2017-11-15T08:22:46.379Z,10.33
2017-11-15T08:23:47.798Z,10.24
2017-11-15T08:24:49.207Z,10.32
2017-11-15T08:25:50.627Z,10.36
2017-11-15T08:26:52.048Z,10.28
2017-11-15T08:27:53.451Z,10.25
2017-11-15T08:28:54.865Z,10.32
2017-11-15T08:29:56.282Z,10.12
2017-11-15T08:30:57.699Z,10.26
2017-11-15T08:31:59.875Z,10.22
2017-11-15T08:33:01.314Z,10.24
2017-11-15T08:34:02.725Z,10.17
2017-11-15T08:35:04.141Z,10.17
2017-11-15T08:36:05.552Z,10.26
2017-11-15T08:37:06.964Z,10.39
2017-11-15T08:38:08.380Z,10.33
2017-11-15T08:39:09.809Z,10.53
2017-11-15T08:40:11.223Z,10.56
2017-11-15T08:41:12.639Z,10.53
2017-11-15T08:42:14.053Z,10.47
2017-11-15T08:43:15.463Z,10.43
2017-11-15T08:44:16.880Z,10.39
2017-11-15T08:45:18.291Z,10.40
2017-11-15T08:46:19.715Z,10.55
2017-11-15T08:47:21.134Z,10.60
2017-11-15T08:48:22.532Z,10.65
2017-11-15T08:49:23.956Z,10.62
2017-11-15T08:50:25.363Z,10.53
2017-11-15T08:51:26.775Z,10.43
2017-11-15T08:52:28.192Z,10.40
2017-11-15T08:53:29.598Z,10.36
2017-11-15T08:54:31.020Z,10.34
2017-11-15T08:55:32.443Z,10.24
2017-11-15T08:56:33.859Z,10.42
2017-11-15T08:57:35.270Z,10.42
2017-11-15T08:58:36.681Z,10.39
2017-11-15T08:59:38.092Z,10.30
2017-11-15T09:00:39.511Z,10.44
2017-11-15T09:01:40.931Z,10.46
2017-11-15T09:02:42.344Z,10.42
2017-11-15T09:03:43.769Z,10.33
2017-11-15T09:04:45.174Z,10.56
2017-11-15T09:05:46.580Z,10.52
2017-11-15T09:06:47.993Z,10.58
2017-11-15T09:07:49.484Z,10.55
2017-11-15T09:08:50.898Z,10.55
2017-11-15T09:09:52.322Z,10.66
2017-11-15T09:10:53.741Z,10.74
2017-11-15T09:11:55.147Z,10.68
2017-11-15T09:12:56.559Z,10.62
2017-11-15T09:13:57.979Z,10.56
2017-11-15T09:14:59.390Z,10.53
2017-11-15T09:16:00.809Z,10.68
2017-11-15T09:17:02.234Z,10.78
2017-11-15T09:18:03.639Z,10.78
2017-11-15T09:19:05.059Z,10.80
2017-11-15T09:20:06.483Z,10.94
2017-11-15T09:21:07.895Z,10.99
2017-11-15T09:22:09.866Z,10.95
2017-11-15T09:23:11.284Z,10.77
2017-11-15T09:24:12.696Z,10.81
2017-11-15T09:25:14.109Z,10.95
2017-11-15T09:26:15.525Z,10.98
2017-11-15T09:27:16.945Z,10.95
2017-11-15T09:28:18.358Z,10.96
2017-11-15T09:29:19.790Z,10.92
2017-11-15T09:30:21.179Z,10.91
2017-11-15T09:31:22.599Z,10.98
2017-11-15T09:32:24.016Z,10.99
2017-11-15T09:33:25.427Z,11.06
2017-11-15T09:34:26.849Z,11.10
2017-11-15T09:35:28.257Z,11.10
2017-11-15T09:36:29.680Z,11.21
2017-11-15T09:37:31.114Z,11.13
2017-11-15T09:38:32.515Z,11.07
2017-11-15T09:39:33.924Z,11.29
2017-11-15T09:40:35.346Z,11.34
2017-11-15T09:41:36.760Z,11.29
2017-11-15T09:42:38.173Z,11.14
2017-11-15T09:43:39.590Z,11.19
2017-11-15T09:44:41.002Z,11.35
2017-11-15T09:45:42.416Z,11.32
2017-11-15T09:46:43.833Z,11.38
2017-11-15T09:47:45.241Z,11.28
2017-11-15T09:48:46.651Z,11.27
2017-11-15T09:49:48.876Z,11.32
2017-11-15T09:50:50.292Z,11.44
2017-11-15T09:51:51.715Z,11.57
2017-11-15T09:52:53.120Z,11.49
2017-11-15T09:53:54.537Z,11.54
2017-11-15T09:54:55.955Z,11.49
2017-11-15T09:55:57.363Z,11.61
2017-11-15T09:56:58.794Z,11.62
2017-11-15T09:58:00.199Z,11.77
2017-11-15T09:59:01.618Z,11.86
2017-11-15T10:00:03.033Z,12.02
2017-11-15T10:01:04.468Z,12.09
2017-11-15T10:02:05.856Z,12.05
2017-11-15T10:03:07.275Z,12.20
2017-11-15T10:04:08.692Z,12.09
2017-11-15T10:05:10.115Z,12.23
2017-11-15T10:06:11.537Z,12.23
2017-11-15T10:07:12.957Z,12.38
2017-11-15T10:08:14.372Z,12.41
2017-11-15T10:09:15.799Z,12.33
2017-11-15T10:10:17.219Z,12.23
2017-11-15T10:11:18.628Z,12.31
2017-11-15T10:12:21.027Z,12.46
2017-11-15T10:13:22.448Z,12.33
2017-11-15T10:14:23.860Z,12.23
2017-11-15T10:15:25.278Z,12.37
2017-11-15T10:16:26.688Z,12.30
2017-11-15T10:17:28.106Z,12.38
2017-11-15T10:18:29.521Z,12.39
2017-11-15T10:19:30.938Z,12.34
2017-11-15T10:20:33.120Z,12.39
2017-11-15T10:21:34.543Z,12.45
2017-11-15T10:22:35.975Z,12.42
2017-11-15T10:23:37.384Z,12.45
2017-11-15T10:24:38.812Z,12.41
2017-11-15T10:25:40.232Z,12.24
2017-11-15T10:26:41.653Z,12.19
2017-11-15T10:27:43.065Z,12.34
2017-11-15T10:28:44.484Z,12.37
2017-11-15T10:29:45.891Z,12.41
2017-11-15T10:30:47.305Z,12.59
2017-11-15T10:31:48.731Z,12.38
2017-11-15T10:32:50.147Z,12.46
2017-11-15T10:33:51.563Z,12.42
2017-11-15T10:34:52.975Z,12.37
2017-11-15T10:35:54.385Z,12.37
2017-11-15T10:36:55.796Z,12.42
2017-11-15T10:37:57.218Z,12.49
2017-11-15T10:38:58.639Z,12.39
2017-11-15T10:40:00.627Z,12.39
2017-11-15T10:41:02.033Z,12.20
2017-11-15T10:42:03.502Z,12.34
2017-11-15T10:43:04.918Z,12.34
2017-11-15T10:44:06.337Z,12.38
2017-11-15T10:45:07.749Z,12.34
2017-11-15T10:46:09.153Z,12.33
2017-11-15T10:47:10.564Z,12.44
2017-11-15T10:48:11.974Z,12.48
2017-11-15T10:49:13.392Z,12.42
2017-11-15T10:50:14.816Z,12.44
2017-11-15T10:51:16.233Z,12.46
2017-11-15T10:52:17.658Z,12.48
2017-11-15T10:53:19.068Z,12.49
2017-11-15T10:54:20.478Z,12.51
2017-11-15T10:55:22.764Z,12.37
2017-11-15T10:56:24.178Z,12.45
2017-11-15T10:57:25.564Z,12.39
2017-11-15T10:58:26.995Z,12.39
2017-11-15T10:59:28.400Z,12.19
2017-11-15T11:00:29.820Z,12.08
2017-11-15T11:01:31.323Z,12.20
2017-11-15T11:02:32.739Z,12.39
2017-11-15T11:03:34.145Z,12.37
2017-11-15T11:04:35.577Z,12.44
2017-11-15T11:05:36.988Z,12.44
2017-11-15T11:06:38.396Z,12.48
2017-11-15T11:07:40.213Z,12.45
2017-11-15T11:08:41.636Z,12.48
2017-11-15T11:09:43.058Z,12.45
2017-11-15T11:10:44.477Z,12.34
2017-11-15T11:11:45.895Z,12.48
2017-11-15T11:12:47.310Z,12.44
2017-11-15T11:13:48.745Z,12.30
2017-11-15T11:14:50.141Z,12.33
2017-11-15T11:15:51.557Z,12.20
2017-11-15T11:16:53.001Z,12.20
2017-11-15T11:17:54.524Z,12.21
2017-11-15T11:18:55.948Z,12.19
2017-11-15T11:19:57.359Z,12.24
2017-11-15T11:20:58.770Z,12.30
2017-11-15T11:22:00.192Z,12.33
2017-11-15T11:23:01.617Z,12.33
2017-11-15T11:24:03.044Z,12.39
2017-11-15T11:25:04.467Z,12.38
2017-11-15T11:26:05.872Z,12.33
2017-11-15T11:27:07.291Z,12.37
2017-11-15T11:28:08.702Z,12.42
2017-11-15T11:29:10.123Z,12.38
2017-11-15T11:30:11.525Z,12.46
2017-11-15T11:31:13.034Z,12.45
2017-11-15T11:32:14.443Z,12.49
2017-11-15T11:33:15.863Z,12.59
2017-11-15T11:34:17.266Z,12.60
2017-11-15T11:35:18.700Z,12.66
2017-11-15T11:36:20.093Z,12.69
2017-11-15T11:37:21.518Z,12.67
2017-11-15T11:38:23.039Z,12.66
2017-11-15T11:39:24.449Z,12.71
2017-11-15T11:40:25.869Z,12.64
2017-11-15T11:41:27.285Z,12.69
2017-11-15T11:42:28.718Z,12.63
2017-11-15T11:43:30.123Z,12.59
2017-11-15T11:44:31.544Z,12.56
2017-11-15T11:45:32.971Z,12.69
2017-11-15T11:46:34.400Z,12.59
2017-11-15T11:47:35.810Z,12.70
2017-11-15T11:48:37.225Z,12.63
2017-11-15T11:49:38.644Z,12.57
2017-11-15T11:50:40.057Z,12.45
2017-11-15T11:51:41.473Z,12.45
2017-11-15T11:52:42.880Z,12.54
2017-11-15T11:53:44.288Z,12.59
2017-11-15T11:54:45.711Z,12.64
2017-11-15T11:55:47.142Z,12.66
2017-11-15T11:56:48.555Z,12.64
2017-11-15T11:57:49.971Z,12.59
2017-11-15T11:58:51.385Z,12.62
2017-11-15T11:59:52.811Z,12.56
2017-11-15T12:00:54.224Z,12.59
2017-11-15T12:01:55.643Z,12.59
2017-11-15T12:02:57.067Z,12.64
2017-11-15T12:03:58.484Z,12.62
2017-11-15T12:04:59.919Z,12.44
2017-11-15T12:06:01.333Z,12.48
2017-11-15T12:07:02.758Z,12.48
2017-11-15T12:08:04.150Z,12.48
2017-11-15T12:09:05.608Z,12.57
2017-11-15T12:10:07.025Z,12.62
2017-11-15T12:11:08.440Z,12.49
2017-11-15T12:12:09.859Z,12.46
2017-11-15T12:13:11.267Z,12.51
2017-11-15T12:14:12.681Z,12.41
2017-11-15T12:15:14.109Z,12.20
2017-11-15T12:16:15.521Z,12.33
2017-11-15T12:17:16.941Z,12.26
2017-11-15T12:18:18.356Z,12.23
2017-11-15T12:19:19.775Z,12.33
2017-11-15T12:20:21.196Z,12.39
2017-11-15T12:21:22.602Z,12.46
2017-11-15T12:22:24.011Z,12.46
2017-11-15T12:23:25.452Z,12.46
2017-11-15T12:24:26.875Z,12.44
2017-11-15T12:25:28.293Z,12.49
2017-11-15T12:26:29.800Z,12.34
2017-11-15T12:27:32.084Z,12.37
2017-11-15T12:28:33.491Z,12.33
2017-11-15T12:29:34.914Z,12.23
2017-11-15T12:30:36.329Z,12.33
2017-11-15T12:31:37.744Z,12.48
2017-11-15T12:32:39.204Z,12.42
2017-11-15T12:33:40.614Z,12.44
2017-11-15T12:34:42.674Z,12.46
2017-11-15T12:35:44.091Z,12.44
2017-11-15T12:36:45.504Z,12.54
2017-11-15T12:37:46.923Z,12.46
2017-11-15T12:38:48.344Z,12.57
2017-11-15T12:39:49.764Z,12.38
2017-11-15T12:40:51.205Z,12.33
2017-11-15T12:41:52.611Z,12.45
2017-11-15T12:42:54.017Z,12.46
2017-11-15T12:43:55.431Z,12.49
2017-11-15T12:44:56.852Z,12.59
2017-11-15T12:45:58.265Z,12.60
2017-11-15T12:46:59.678Z,12.45
2017-11-15T12:48:01.108Z,12.46
2017-11-15T12:49:02.521Z,12.48
2017-11-15T12:50:03.941Z,12.46
2017-11-15T12:51:05.351Z,12.57
2017-11-15T12:52:06.760Z,12.49
2017-11-15T12:53:08.168Z,12.48
2017-11-15T12:54:09.587Z,12.56
2017-11-15T12:55:11.020Z,12.60
2017-11-15T12:56:12.433Z,12.63
2017-11-15T12:57:13.856Z,12.46
2017-11-15T12:58:15.267Z,12.57
2017-11-15T12:59:16.684Z,12.57
2017-11-15T13:00:18.101Z,12.66
2017-11-15T13:01:19.539Z,12.63
2017-11-15T13:02:20.949Z,12.64
2017-11-15T13:03:22.361Z,12.67
2017-11-15T13:04:23.825Z,12.75
2017-11-15T13:05:25.231Z,12.75
2017-11-15T13:06:26.652Z,12.69
2017-11-15T13:07:28.059Z,12.67
2017-11-15T13:08:29.469Z,12.70
2017-11-15T13:09:30.884Z,12.45
2017-11-15T13:10:35.661Z,12.46
2017-11-15T13:11:37.079Z,12.48
2017-11-15T13:12:38.492Z,12.46
2017-11-15T13:13:39.919Z,12.44
2017-11-15T13:14:41.322Z,12.56
2017-11-15T13:15:42.738Z,12.60
2017-11-15T13:16:44.165Z,12.57
2017-11-15T13:17:45.580Z,12.60
2017-11-15T13:18:47.001Z,12.49
2017-11-15T13:19:48.413Z,12.56
2017-11-15T13:20:49.835Z,12.56
2017-11-15T13:21:51.243Z,12.59
2017-11-15T13:22:52.652Z,12.49
2017-11-15T13:23:54.082Z,12.45
2017-11-15T13:24:55.502Z,12.59
2017-11-15T13:25:58.218Z,12.54